createdAt,value
2019-04-19T00:04:09.348Z,14.90
2019-04-19T00:09:25.118Z,15.00
2019-04-19T00:14:06.568Z,15.10
2019-04-19T00:19:38.041Z,15.10
2019-04-19T00:24:10.047Z,15.10
2019-04-19T00:29:19.027Z,15.10
2019-04-19T00:34:12.481Z,15.10
2019-04-19T00:39:51.877Z,14.90
2019-04-19T00:45:04.280Z,14.80
2019-04-19T00:50:00.254Z,14.80
2019-04-19T00:54:59.033Z,14.60
2019-04-19T00:59:51.437Z,14.60
2019-04-19T01:04:55.697Z,14.60
2019-04-19T01:10:09.918Z,14.60
2019-04-19T01:15:08.169Z,14.60
2019-04-19T01:19:59.891Z,14.50
2019-04-19T01:24:56.189Z,14.40
2019-04-19T01:29:57.814Z,14.40
2019-04-19T01:35:01.001Z,14.30
2019-04-19T01:40:13.477Z,14.20
2019-04-19T01:45:54.398Z,14.10
2019-04-19T01:51:15.028Z,13.90
2019-04-19T01:56:08.432Z,13.90
2019-04-19T02:01:03.335Z,13.70
2019-04-19T02:06:06.802Z,13.60
2019-04-19T02:11:45.248Z,13.50
2019-04-19T02:16:36.351Z,13.40
2019-04-19T02:21:40.518Z,13.40
2019-04-19T02:26:44.644Z,13.50
2019-04-19T02:32:11.856Z,13.50
2019-04-19T02:37:08.265Z,13.50
2019-04-19T02:57:37.143Z,13.30
2019-04-19T03:02:52.756Z,13.10
2019-04-19T03:07:15.481Z,13.20
2019-04-19T03:12:36.992Z,13.30
2019-04-19T03:17:34.740Z,13.30
2019-04-19T03:22:34.656Z,13.30
2019-04-19T03:27:27.579Z,13.20
2019-04-19T03:37:39.811Z,13.30
2019-04-19T03:43:04.181Z,13.30
2019-04-19T03:48:11.658Z,13.30
2019-04-19T03:53:06.903Z,13.20
2019-04-19T03:57:58.368Z,13.10
2019-04-19T04:02:52.785Z,13.00
2019-04-19T04:08:08.818Z,13.00
2019-04-19T04:13:20.460Z,12.80
2019-04-19T04:18:11.274Z,12.70
2019-04-19T04:23:16.240Z,12.80
2019-04-19T04:28:26.566Z,12.80
2019-04-19T04:33:28.750Z,12.80
2019-04-19T04:38:23.861Z,12.90
2019-04-19T04:43:31.373Z,12.90
2019-04-19T04:48:43.965Z,12.90
2019-04-19T04:53:32.070Z,12.80
2019-04-19T04:58:35.929Z,12.70
2019-04-19T05:03:51.187Z,12.60
2019-04-19T05:08:50.376Z,12.70
2019-04-19T05:13:56.340Z,12.70
2019-04-19T05:18:54.138Z,12.70
2019-04-19T05:23:59.554Z,12.60
2019-04-19T05:28:56.979Z,12.50
2019-04-19T05:33:51.738Z,12.50
2019-04-19T05:39:12.595Z,12.50
2019-04-19T05:49:19.949Z,12.70
2019-04-19T05:54:08.297Z,12.80
2019-04-19T05:59:12.730Z,12.90
2019-04-19T06:04:29.089Z,13.00
2019-04-19T06:09:09.217Z,13.20
2019-04-19T06:14:33.915Z,13.30
2019-04-19T06:19:29.812Z,13.50
2019-04-19T06:24:31.957Z,13.70
2019-04-19T06:29:38.483Z,13.90
2019-04-19T06:34:34.899Z,14.10
2019-04-19T06:39:16.349Z,14.30
2019-04-19T06:44:34.125Z,14.50
2019-04-19T06:49:22.908Z,14.70
2019-04-19T06:54:24.882Z,14.80
2019-04-19T06:59:38.108Z,15.10
2019-04-19T07:04:23.254Z,15.30
2019-04-19T07:09:50.266Z,15.60
2019-04-19T07:14:29.528Z,15.80
2019-04-19T07:19:47.011Z,16.10
2019-04-19T07:24:49.720Z,16.60
2019-04-19T07:29:29.716Z,16.80
2019-04-19T07:34:45.228Z,17.10
2019-04-19T07:40:01.364Z,17.40
2019-04-19T07:44:48.032Z,17.60
2019-04-19T07:49:55.796Z,17.90
2019-04-19T07:54:46.982Z,18.10
2019-04-19T08:00:37.586Z,18.30
2019-04-19T08:05:15.314Z,18.70
2019-04-19T08:10:24.722Z,18.90
2019-04-19T08:30:02.895Z,19.90
2019-04-19T08:35:02.972Z,20.20
2019-04-19T08:40:18.642Z,20.40
2019-04-19T08:45:04.970Z,20.70
2019-04-19T08:50:10.802Z,20.90
2019-04-19T08:55:32.967Z,21.20
2019-04-19T09:00:41.040Z,21.60
2019-04-19T09:05:27.179Z,21.70
2019-04-19T09:10:35.460Z,21.90
2019-04-19T09:15:32.768Z,22.00
2019-04-19T09:20:38.816Z,22.20
2019-04-19T09:25:45.599Z,22.50
2019-04-19T09:30:53.659Z,22.60
2019-04-19T09:35:43.532Z,22.80
2019-04-19T09:40:46.779Z,23.00
2019-04-19T09:45:40.375Z,23.30
2019-04-19T09:50:54.969Z,23.60
2019-04-19T09:56:01.737Z,24.10
2019-04-19T10:00:45.370Z,24.30
2019-04-19T10:05:45.138Z,24.40
2019-04-19T10:10:46.627Z,24.60
2019-04-19T10:15:56.606Z,24.70
2019-04-19T10:21:09.681Z,25.00
2019-04-19T10:26:14.318Z,25.10
2019-04-19T10:31:19.609Z,25.10
2019-04-19T10:36:20.534Z,25.20
2019-04-19T10:41:21.979Z,25.20
2019-04-19T10:46:22.721Z,25.30
2019-04-19T10:51:35.520Z,25.50
2019-04-19T10:56:58.592Z,25.60
2019-04-19T11:01:58.417Z,25.80
2019-04-19T11:06:59.757Z,25.90
2019-04-19T11:11:59.699Z,26.00
2019-04-19T11:16:59.724Z,26.10
2019-04-19T11:22:01.559Z,26.20
2019-04-19T11:27:01.405Z,26.20
2019-04-19T11:32:19.858Z,26.30
2019-04-19T11:37:20.099Z,26.30
2019-04-19T11:42:21.073Z,26.20
2019-04-19T11:47:23.002Z,26.30
2019-04-19T11:52:27.985Z,26.40
2019-04-19T11:57:32.578Z,26.50
2019-04-19T12:02:44.145Z,26.50
2019-04-19T12:07:44.439Z,26.60
2019-04-19T12:12:45.383Z,26.70
2019-04-19T12:17:46.178Z,26.80
2019-04-19T12:22:46.268Z,26.90
2019-04-19T12:27:46.346Z,26.90
2019-04-19T12:32:51.600Z,27.00
2019-04-19T12:37:51.404Z,27.00
2019-04-19T12:42:51.959Z,27.00
2019-04-19T12:47:53.179Z,26.90
2019-04-19T12:52:53.919Z,26.80
2019-04-19T12:57:59.943Z,26.90
2019-04-19T13:03:03.844Z,27.00
2019-04-19T13:08:03.502Z,27.10
2019-04-19T13:13:03.699Z,27.20
2019-04-19T13:18:04.387Z,27.00
2019-04-19T13:23:04.206Z,26.80
2019-04-19T13:28:04.953Z,26.90
2019-04-19T13:33:06.118Z,26.90
2019-04-19T13:38:19.155Z,26.80
2019-04-19T13:43:18.918Z,26.60
2019-04-19T13:48:18.719Z,26.40
2019-04-19T13:53:18.523Z,26.30
2019-04-19T13:58:18.282Z,26.10
2019-04-19T14:03:19.246Z,26.20
2019-04-19T14:08:21.558Z,26.20
2019-04-19T14:13:21.518Z,26.00
2019-04-19T14:18:22.341Z,26.00
2019-04-19T14:23:23.520Z,25.80
2019-04-19T14:28:23.293Z,25.60
2019-04-19T14:33:23.215Z,25.50
2019-04-19T14:38:23.606Z,25.50
2019-04-19T14:43:24.757Z,25.40
2019-04-19T14:50:34.013Z,25.10
2019-04-19T14:53:26.630Z,25.00
2019-04-19T14:58:26.495Z,24.90
2019-04-19T15:03:28.198Z,24.90
2019-04-19T15:08:28.649Z,24.70
2019-04-19T15:13:28.806Z,24.60
2019-04-19T15:18:29.783Z,24.60
2019-04-19T15:23:29.807Z,24.50
2019-04-19T15:28:30.955Z,24.10
2019-04-19T15:33:32.070Z,24.20
2019-04-19T15:38:32.204Z,24.20
2019-04-19T15:43:32.127Z,24.20
2019-04-19T15:48:37.937Z,24.20
2019-04-19T15:53:34.089Z,24.30
2019-04-19T15:58:34.318Z,24.10
2019-04-19T16:03:50.285Z,24.00
2019-04-19T16:09:12.982Z,23.90
2019-04-19T16:14:14.238Z,23.80
2019-04-19T16:19:14.658Z,23.80
2019-04-19T16:24:15.415Z,23.80
2019-04-19T16:29:25.637Z,23.80
2019-04-19T16:34:18.206Z,23.90
2019-04-19T16:39:19.333Z,24.00
2019-04-19T16:44:19.950Z,23.90
2019-04-19T16:49:20.438Z,23.80
2019-04-19T16:54:20.425Z,23.80
2019-04-19T16:59:21.730Z,23.70
2019-04-19T17:04:25.651Z,23.60
2019-04-19T17:09:24.755Z,23.60
2019-04-19T17:14:25.173Z,23.40
2019-04-19T17:19:30.739Z,23.20
2019-04-19T17:24:31.238Z,23.00
2019-04-19T17:29:31.112Z,22.90
2019-04-19T17:34:31.943Z,22.80
2019-04-19T17:39:32.845Z,22.80
2019-04-19T17:44:33.567Z,22.70
2019-04-19T17:49:34.809Z,22.60
2019-04-19T17:54:54.719Z,22.50
2019-04-19T17:59:36.356Z,22.40
2019-04-19T18:04:36.290Z,22.20
2019-04-19T18:09:37.116Z,22.10
2019-04-19T18:14:37.886Z,22.00
2019-04-19T18:19:39.923Z,21.70
2019-04-19T18:24:47.741Z,21.60
2019-04-19T18:29:40.430Z,21.50
2019-04-19T18:34:46.771Z,21.20
2019-04-19T18:39:45.553Z,21.10
2019-04-19T18:44:49.952Z,21.00
2019-04-19T18:49:47.722Z,20.80
2019-04-19T18:54:54.989Z,20.70
2019-04-19T18:59:52.605Z,20.60
2019-04-19T19:04:54.069Z,20.40
2019-04-19T19:09:55.750Z,20.40
2019-04-19T19:21:13.715Z,20.10
2019-04-19T19:26:21.336Z,19.90
2019-04-19T19:31:14.545Z,19.80
2019-04-19T19:36:21.175Z,19.70
2019-04-19T19:41:30.850Z,19.50
2019-04-19T19:46:43.085Z,19.50
2019-04-19T19:51:39.526Z,19.40
2019-04-19T19:56:53.892Z,19.30
2019-04-19T20:01:36.527Z,19.20
2019-04-19T20:06:33.254Z,19.10
2019-04-19T20:11:35.904Z,19.10
2019-04-19T20:16:36.288Z,19.00
2019-04-19T20:21:36.684Z,18.90
2019-04-19T20:26:50.203Z,18.80
2019-04-19T20:31:40.709Z,18.90
2019-04-19T20:36:42.402Z,18.80
2019-04-19T20:41:46.741Z,18.70
2019-04-19T20:46:42.308Z,18.70
2019-04-19T20:51:53.727Z,18.60
2019-04-19T20:57:27.528Z,18.60
2019-04-19T21:02:19.031Z,18.70
2019-04-19T21:07:13.598Z,18.60
2019-04-19T21:12:16.927Z,18.60
2019-04-19T21:17:12.442Z,18.50
2019-04-19T21:22:16.781Z,18.50
2019-04-19T21:27:22.580Z,18.50
2019-04-19T21:32:22.826Z,18.40
2019-04-19T21:37:24.855Z,18.30
2019-04-19T21:42:21.859Z,18.30
2019-04-19T21:47:20.399Z,18.20
2019-04-19T21:52:23.932Z,18.10
2019-04-19T21:57:27.444Z,17.80
2019-04-19T22:02:36.468Z,17.70
2019-04-19T22:07:38.113Z,17.80
2019-04-19T22:12:32.464Z,17.70
2019-04-19T22:17:32.286Z,17.70
2019-04-19T22:22:33.542Z,17.60
2019-04-19T22:27:33.722Z,17.50
2019-04-19T22:32:34.468Z,17.40
2019-04-19T22:37:36.730Z,17.40
2019-04-19T22:42:47.355Z,17.40
2019-04-19T22:47:37.659Z,17.30
2019-04-19T22:52:38.874Z,17.30
2019-04-19T22:57:45.788Z,17.10
2019-04-19T23:03:02.898Z,17.10
2019-04-19T23:08:06.063Z,17.00
2019-04-19T23:13:09.290Z,17.00
2019-04-19T23:18:14.574Z,16.90
2019-04-19T23:23:17.317Z,16.90
2019-04-19T23:28:20.886Z,16.80
2019-04-19T23:33:19.058Z,16.70
2019-04-19T23:38:20.824Z,16.60
2019-04-19T23:43:25.660Z,16.60
2019-04-19T23:48:24.993Z,16.50
2019-04-19T23:53:23.195Z,16.50
2019-04-19T23:58:28.653Z,16.60
